Time;durP1;ratioP1;P1;durP2;ratioP2;P2;SDS_P1;SDS_P2;PMS_P1;PMS_P2;Temp;Humidity;BMP_temperature;BMP_pressure;BME280_temperature;BME280_humidity;BME280_pressure;Samples;Min_cycle;Max_cycle;Signal;HPM_P1;HPM_P2
2021/04/04 00:02:18;;;;;;;3.13;2.70;;;7.70;89.40;;;;;;6250865;28;20485;-58
2021/04/04 00:05:21;;;;;;;3.33;3.00;;;7.30;90.00;;;;;;6251086;28;20470;-59
2021/04/04 00:08:23;;;;;;;3.27;3.00;;;7.20;91.00;;;;;;6250611;28;20475;-59
2021/04/04 00:11:26;;;;;;;2.60;2.40;;;7.10;91.80;;;;;;6250650;28;20483;-58
2021/04/04 00:14:28;;;;;;;3.90;3.27;;;7.10;92.70;;;;;;6250396;28;20816;-58
2021/04/04 00:17:31;;;;;;;3.40;3.10;;;7.00;93.80;;;;;;6250579;28;20972;-59
2021/04/04 00:20:33;;;;;;;3.50;3.20;;;6.80;93.80;;;;;;6250479;28;20819;-60
2021/04/04 00:23:39;;;;;;;3.23;3.00;;;6.60;95.40;;;;;;6250066;28;20490;-58
2021/04/04 00:26:44;;;;;;;3.70;3.40;;;6.60;96.00;;;;;;6250214;28;20472;-58
2021/04/04 00:29:46;;;;;;;3.70;3.40;;;6.60;96.80;;;;;;6250239;28;20482;-59
2021/04/04 00:32:48;;;;;;;4.00;3.70;;;6.60;97.10;;;;;;6250217;28;20467;-59
2021/04/04 00:35:51;;;;;;;4.80;3.90;;;6.60;97.50;;;;;;6249956;28;20815;-59
2021/04/04 00:38:53;;;;;;;3.73;3.43;;;6.50;97.80;;;;;;6249921;28;20475;-60
2021/04/04 00:41:56;;;;;;;5.00;3.70;;;6.70;98.10;;;;;;6246327;28;20486;-59
2021/04/04 00:44:58;;;;;;;4.50;4.10;;;6.70;97.90;;;;;;6249808;28;20488;-60
2021/04/04 00:48:00;;;;;;;3.90;3.60;;;6.90;97.80;;;;;;6249860;28;20471;-59
2021/04/04 00:51:03;;;;;;;4.67;4.27;;;6.90;97.70;;;;;;6249944;28;20475;-59
2021/04/04 00:54:06;;;;;;;4.57;4.17;;;7.10;97.70;;;;;;6249406;28;20487;-59
2021/04/04 00:57:10;;;;;;;4.30;3.90;;;7.10;97.50;;;;;;6250177;28;20824;-60
2021/04/04 01:00:15;;;;;;;4.23;3.87;;;7.10;97.30;;;;;;6249498;28;20486;-60
2021/04/04 01:03:17;;;;;;;4.70;4.30;;;7.20;97.40;;;;;;6249291;28;20517;-66
2021/04/04 01:06:19;;;;;;;3.70;3.40;;;7.20;97.60;;;;;;6249623;28;20475;-59
2021/04/04 01:09:22;;;;;;;4.30;4.00;;;7.30;97.80;;;;;;6249009;28;20482;-59
2021/04/04 01:12:32;;;;;;;4.73;4.10;;;7.30;97.70;;;;;;6248552;28;20455;-59
2021/04/04 01:15:37;;;;;;;5.47;5.00;;;7.40;97.90;;;;;;6249765;28;20432;-60
2021/04/04 01:18:42;;;;;;;5.60;4.30;;;7.40;97.80;;;;;;6249804;28;20447;-60
2021/04/04 01:21:50;;;;;;;5.30;4.80;;;7.40;97.10;;;;;;6250065;28;20470;-59
2021/04/04 01:25:02;;;;;;;7.53;4.43;;;7.40;96.90;;;;;;6249292;28;20957;-60
2021/04/04 01:28:09;;;;;;;5.00;4.30;;;7.40;97.00;;;;;;6249173;28;20467;-59
2021/04/04 01:31:12;;;;;;;4.60;4.20;;;7.30;97.00;;;;;;6249641;28;20478;-59
2021/04/04 01:34:17;;;;;;;4.90;4.20;;;7.20;97.60;;;;;;6249159;28;20467;-60
2021/04/04 01:37:20;;;;;;;5.73;5.23;;;7.10;97.90;;;;;;6249911;28;20470;-60
2021/04/04 01:40:24;;;;;;;6.07;4.97;;;7.20;98.10;;;;;;6246169;28;20470;-59
2021/04/04 01:43:27;;;;;;;7.00;5.37;;;7.20;98.40;;;;;;6224727;28;20491;-60
2021/04/04 01:46:30;;;;;;;5.30;4.63;;;7.20;98.30;;;;;;6224791;28;20973;-59
2021/04/04 01:49:34;;;;;;;5.03;4.50;;;7.20;98.00;;;;;;6238749;28;20478;-59
2021/04/04 01:52:39;;;;;;;5.10;4.27;;;7.20;97.30;;;;;;6248976;28;20520;-60
2021/04/04 01:55:42;;;;;;;4.93;4.33;;;7.20;96.10;;;;;;6249328;28;20605;-59
2021/04/04 01:58:45;;;;;;;5.63;5.17;;;7.00;95.70;;;;;;6249114;28;20979;-60
2021/04/04 02:01:48;;;;;;;4.73;4.33;;;6.90;95.80;;;;;;6249218;28;20475;-59
2021/04/04 02:04:51;;;;;;;4.60;4.20;;;6.80;95.70;;;;;;6248884;28;20489;-59
2021/04/04 02:07:55;;;;;;;5.53;4.27;;;6.70;96.30;;;;;;6248740;28;21047;-59
2021/04/04 02:10:58;;;;;;;5.00;4.57;;;6.70;96.10;;;;;;6249046;28;20478;-59
2021/04/04 02:14:07;;;;;;;5.83;4.43;;;6.60;96.00;;;;;;6249105;28;20475;-59
2021/04/04 02:17:09;;;;;;;5.03;4.50;;;6.50;96.20;;;;;;6244649;28;20945;-59
2021/04/04 02:20:15;;;;;;;4.43;4.10;;;6.40;95.90;;;;;;6250084;28;20974;-59
2021/04/04 02:23:18;;;;;;;4.77;4.27;;;6.40;96.30;;;;;;6253282;28;20888;-59
2021/04/04 02:26:21;;;;;;;4.93;4.50;;;6.30;96.40;;;;;;6253691;28;20467;-59
2021/04/04 02:29:24;;;;;;;5.47;4.97;;;6.30;96.50;;;;;;6253047;28;21013;-59
2021/04/04 02:32:28;;;;;;;3.90;3.60;;;6.30;96.50;;;;;;6252815;28;20463;-59
2021/04/04 02:35:34;;;;;;;4.57;4.13;;;6.20;96.50;;;;;;6252816;28;20474;-59
2021/04/04 02:38:39;;;;;;;5.17;4.20;;;6.10;96.60;;;;;;6253116;28;20479;-59
2021/04/04 02:41:44;;;;;;;4.60;4.20;;;6.10;97.00;;;;;;6249155;28;20521;-59
2021/04/04 02:44:48;;;;;;;4.73;4.30;;;6.10;97.20;;;;;;6252732;28;20476;-60
2021/04/04 02:47:58;;;;;;;5.23;4.07;;;6.10;97.10;;;;;;6252458;28;20475;-59
2021/04/04 02:51:02;;;;;;;4.30;4.00;;;6.10;97.10;;;;;;6252745;28;20537;-59
2021/04/04 02:54:07;;;;;;;6.10;3.97;;;6.10;96.90;;;;;;6252082;28;20484;-59
2021/04/04 02:57:10;;;;;;;5.07;4.57;;;6.10;97.20;;;;;;6252740;28;20471;-59
2021/04/04 03:00:17;;;;;;;6.97;5.50;;;6.00;97.40;;;;;;6252324;28;20489;-60
2021/04/04 03:03:21;;;;;;;5.30;4.23;;;6.00;97.50;;;;;;6252209;28;20513;-59
2021/04/04 03:06:26;;;;;;;4.87;4.47;;;6.10;97.90;;;;;;6252192;28;20490;-60
2021/04/04 03:09:33;;;;;;;7.30;4.33;;;6.00;97.50;;;;;;6252552;28;20447;-59
2021/04/04 03:12:37;;;;;;;6.33;4.97;;;6.00;97.70;;;;;;6252327;28;20450;-59
2021/04/04 03:15:41;;;;;;;6.37;5.17;;;6.00;97.70;;;;;;6251838;28;20448;-59
2021/04/04 03:18:44;;;;;;;6.00;5.40;;;6.00;98.20;;;;;;6252198;28;20917;-59
2021/04/04 03:21:47;;;;;;;6.27;5.70;;;6.00;97.80;;;;;;6252145;28;20455;-60
2021/04/04 03:24:52;;;;;;;5.97;5.37;;;5.90;97.70;;;;;;6251929;28;20482;-59
2021/04/04 03:27:56;;;;;;;8.50;6.23;;;5.80;97.90;;;;;;6251622;28;20979;-59
2021/04/04 03:30:59;;;;;;;5.53;5.00;;;5.80;97.60;;;;;;6251158;28;20475;-60
2021/04/04 03:34:02;;;;;;;5.00;4.57;;;5.70;97.10;;;;;;6251285;28;20475;-60
2021/04/04 03:37:05;;;;;;;4.63;4.23;;;5.70;96.40;;;;;;6252050;28;20469;-59
2021/04/04 03:40:08;;;;;;;3.93;3.63;;;5.60;95.90;;;;;;6250175;28;20814;-60
2021/04/04 03:43:14;;;;;;;4.53;3.87;;;5.50;95.20;;;;;;6249230;28;20471;-60
2021/04/04 03:46:23;;;;;;;4.50;3.40;;;5.60;94.90;;;;;;6251364;28;20482;-59
2021/04/04 03:49:26;;;;;;;4.90;3.37;;;5.60;95.00;;;;;;6251440;28;20487;-59
2021/04/04 03:52:29;;;;;;;4.13;3.83;;;5.50;95.10;;;;;;6251129;28;20463;-59
2021/04/04 03:55:32;;;;;;;3.47;3.17;;;5.50;95.00;;;;;;6250991;28;20807;-59
2021/04/04 03:58:37;;;;;;;3.97;3.73;;;5.40;95.30;;;;;;6251280;28;20467;-59
2021/04/04 04:01:44;;;;;;;4.40;3.00;;;5.40;95.00;;;;;;6251484;28;20569;-59
2021/04/04 04:04:47;;;;;;;3.43;3.13;;;5.40;95.40;;;;;;6250929;28;20472;-59
2021/04/04 04:07:50;;;;;;;3.70;3.40;;;5.30;95.00;;;;;;6250847;28;20467;-59
2021/04/04 04:10:53;;;;;;;4.47;3.33;;;5.20;95.00;;;;;;6250859;28;20971;-59
2021/04/04 04:13:56;;;;;;;3.40;2.87;;;5.20;95.40;;;;;;6250548;28;20467;-60
2021/04/04 04:17:02;;;;;;;4.33;3.53;;;5.10;95.40;;;;;;6250687;28;20467;-59
2021/04/04 04:20:05;;;;;;;3.80;3.10;;;4.90;95.40;;;;;;6250446;28;20979;-60
2021/04/04 04:23:09;;;;;;;3.40;3.10;;;4.80;95.70;;;;;;6250213;28;20996;-59
2021/04/04 04:26:13;;;;;;;3.50;3.20;;;4.70;95.40;;;;;;6246050;28;20475;-60
2021/04/04 04:29:17;;;;;;;5.53;2.80;;;4.70;95.60;;;;;;6250427;28;20617;-59
2021/04/04 04:32:22;;;;;;;3.97;3.63;;;4.70;95.80;;;;;;6250730;28;20486;-60
2021/04/04 04:35:26;;;;;;;5.63;5.03;;;4.70;96.20;;;;;;6250318;28;20464;-60
2021/04/04 04:38:29;;;;;;;3.33;2.80;;;4.70;95.70;;;;;;6250328;28;20471;-58
2021/04/04 04:41:34;;;;;;;4.00;3.00;;;4.70;94.80;;;;;;6246529;28;20482;-58
2021/04/04 04:44:39;;;;;;;3.00;2.80;;;4.70;94.80;;;;;;6249087;28;20483;-59
2021/04/04 04:47:43;;;;;;;4.60;2.73;;;4.70;94.60;;;;;;6249987;28;20490;-59
2021/04/04 04:50:46;;;;;;;3.87;3.40;;;4.70;94.40;;;;;;6249815;28;20815;-59
2021/04/04 04:53:49;;;;;;;3.40;3.10;;;4.80;94.60;;;;;;6249327;28;20807;-59
2021/04/04 04:56:53;;;;;;;3.00;2.80;;;4.90;94.30;;;;;;6250107;28;20976;-59
2021/04/04 05:00:00;;;;;;;3.40;3.10;;;4.90;94.10;;;;;;6249354;28;20471;-59
2021/04/04 05:03:04;;;;;;;3.70;3.40;;;5.10;94.50;;;;;;6248208;28;20485;-59
2021/04/04 05:06:08;;;;;;;2.77;2.57;;;5.10;94.60;;;;;;6248913;28;20497;-59
2021/04/04 05:09:10;;;;;;;3.13;2.87;;;5.00;94.50;;;;;;6248722;28;20479;-60
2021/04/04 05:12:20;;;;;;;3.27;2.93;;;5.10;94.30;;;;;;6248220;28;20474;-60
2021/04/04 05:15:25;;;;;;;3.57;3.03;;;5.10;94.10;;;;;;6248931;28;20494;-60
2021/04/04 05:18:28;;;;;;;3.60;3.00;;;5.10;94.40;;;;;;6250151;28;20440;-60
2021/04/04 05:21:32;;;;;;;5.10;2.90;;;5.20;94.50;;;;;;6249627;28;20857;-59
2021/04/04 05:24:34;;;;;;;3.10;2.23;;;5.30;94.00;;;;;;6249066;28;20487;-60
2021/04/04 05:27:37;;;;;;;3.20;2.77;;;5.40;93.60;;;;;;6239513;28;20794;-59
2021/04/04 05:30:39;;;;;;;3.60;3.27;;;5.50;93.00;;;;;;6249299;28;20781;-60
2021/04/04 05:33:42;;;;;;;2.50;2.30;;;5.60;93.20;;;;;;6249706;28;20463;-60
2021/04/04 05:36:51;;;;;;;3.40;3.10;;;5.70;93.00;;;;;;6249698;28;20443;-59
2021/04/04 05:39:53;;;;;;;4.20;2.63;;;5.80;92.90;;;;;;6249773;28;20467;-60
2021/04/04 05:42:57;;;;;;;4.80;2.93;;;5.90;92.80;;;;;;6249851;28;20474;-59
2021/04/04 05:46:05;;;;;;;5.33;4.60;;;5.90;92.80;;;;;;6249147;28;20467;-59
2021/04/04 05:49:16;;;;;;;4.67;4.17;;;6.00;92.60;;;;;;6249480;28;20803;-59
2021/04/04 05:52:37;;;;;;;4.00;3.67;;;6.10;92.40;;;;;;6234076;28;20957;-59
2021/04/04 05:55:52;;;;;;;3.37;3.07;;;6.00;92.00;;;;;;6228703;28;20777;-60
2021/04/04 05:59:00;;;;;;;3.67;3.37;;;6.10;92.20;;;;;;6229683;28;20471;-60
2021/04/04 06:02:40;;;;;;;3.93;3.47;;;6.10;91.90;;;;;;6245144;28;20459;-61
2021/04/04 06:05:58;;;;;;;3.17;2.90;;;6.10;91.30;;;;;;6253840;28;20932;-59
2021/04/04 06:09:19;;;;;;;3.87;3.00;;;6.20;90.60;;;;;;6253578;28;20796;-59
2021/04/04 06:12:37;;;;;;;3.67;3.37;;;6.30;90.80;;;;;;6254007;28;20553;-60
2021/04/04 06:15:49;;;;;;;3.30;2.97;;;6.50;90.50;;;;;;6253878;28;20454;-60
2021/04/04 06:19:05;;;;;;;2.97;2.67;;;6.60;89.20;;;;;;6253930;28;20524;-60
2021/04/04 06:22:14;;;;;;;2.53;2.30;;;6.70;88.30;;;;;;6253452;28;20478;-60
2021/04/04 06:25:27;;;;;;;2.70;2.50;;;6.90;84.90;;;;;;6253307;28;20471;-60
2021/04/04 06:28:39;;;;;;;3.70;3.40;;;7.30;81.60;;;;;;6253334;28;20806;-60
2021/04/04 06:31:54;;;;;;;2.40;2.20;;;8.60;76.30;;;;;;6243911;28;20475;-60
2021/04/04 06:35:04;;;;;;;1.80;1.70;;;10.80;67.50;;;;;;6253215;28;20589;-60
2021/04/04 06:38:34;;;;;;;2.10;1.67;;;13.20;56.70;;;;;;6252990;28;20471;-59
2021/04/04 06:41:54;;;;;;;1.53;1.43;;;15.50;47.30;;;;;;6253327;28;20478;-59
2021/04/04 06:45:10;;;;;;;2.40;1.77;;;16.90;40.50;;;;;;6252877;28;20475;-59
2021/04/04 06:48:32;;;;;;;3.00;1.90;;;18.10;37.30;;;;;;6252760;28;20482;-60
2021/04/04 06:51:46;;;;;;;2.17;1.97;;;18.10;36.40;;;;;;6253056;28;20455;-61
2021/04/04 06:55:01;;;;;;;2.07;1.83;;;19.50;35.40;;;;;;6252519;28;20459;-60
2021/04/04 06:58:17;;;;;;;2.07;1.87;;;20.40;32.20;;;;;;6252903;28;20482;-60
2021/04/04 07:01:42;;;;;;;1.70;1.60;;;20.20;29.10;;;;;;6252615;28;20973;-61
2021/04/04 07:04:51;;;;;;;2.87;1.97;;;20.60;28.50;;;;;;6252220;28;20581;-59
2021/04/04 07:08:27;;;;;;;2.10;1.73;;;21.80;28.30;;;;;;6251658;28;20286;-60
2021/04/04 07:11:37;;;;;;;3.07;1.87;;;23.00;26.80;;;;;;6252303;28;20229;-60
2021/04/04 07:14:53;;;;;;;2.40;1.80;;;23.10;26.50;;;;;;6252019;28;20236;-60
2021/04/04 07:18:35;;;;;;;2.60;1.40;;;24.40;25.80;;;;;;6252329;28;20256;-60
2021/04/04 07:22:12;;;;;;;1.83;1.73;;;24.60;25.30;;;;;;6204081;28;20241;-60
2021/04/04 07:25:27;;;;;;;2.17;1.97;;;25.80;24.40;;;;;;6252207;28;20239;-60
2021/04/04 07:29:05;;;;;;;1.80;1.70;;;26.30;23.40;;;;;;6251998;28;20243;-60
2021/04/04 07:32:13;;;;;;;2.50;1.83;;;26.90;22.70;;;;;;6251446;28;20549;-60
2021/04/04 07:35:18;;;;;;;2.47;2.20;;;26.70;22.60;;;;;;6246894;28;20236;-60
2021/04/04 07:38:30;;;;;;;2.10;1.90;;;26.90;21.30;;;;;;6251573;28;20247;-60
2021/04/04 07:41:41;;;;;;;4.90;2.17;;;25.10;22.80;;;;;;6251612;28;20228;-60
2021/04/04 07:44:49;;;;;;;2.03;1.73;;;26.70;22.10;;;;;;6251269;28;20232;-60
2021/04/04 07:47:59;;;;;;;4.90;2.50;;;27.20;21.70;;;;;;6251446;28;20243;-60
2021/04/04 07:51:05;;;;;;;2.37;2.00;;;27.30;20.80;;;;;;6251157;28;20567;-60
2021/04/04 07:54:10;;;;;;;2.20;2.00;;;26.10;22.90;;;;;;6236447;28;20239;-60
2021/04/04 07:57:20;;;;;;;2.00;1.73;;;28.40;21.30;;;;;;6248312;28;20224;-61
2021/04/04 08:00:25;;;;;;;1.63;1.23;;;30.30;19.60;;;;;;6251074;28;20231;-60
2021/04/04 08:03:36;;;;;;;2.17;1.60;;;29.90;17.80;;;;;;6250413;28;20241;-60
2021/04/04 08:06:42;;;;;;;1.80;1.60;;;27.60;19.20;;;;;;6250876;28;20714;-60
2021/04/04 08:09:49;;;;;;;1.80;1.53;;;27.40;19.60;;;;;;6251145;28;20306;-60
2021/04/04 08:12:58;;;;;;;1.93;1.73;;;28.70;18.30;;;;;;6251060;28;20232;-60
2021/04/04 08:16:09;;;;;;;1.93;1.70;;;27.40;17.70;;;;;;6250781;28;20273;-60
2021/04/04 08:19:11;;;;;;;2.57;1.37;;;25.00;19.50;;;;;;6250416;28;20610;-60
2021/04/04 08:22:22;;;;;;;1.73;1.17;;;23.90;20.00;;;;;;6250502;28;20239;-60
2021/04/04 08:25:34;;;;;;;1.40;1.20;;;22.00;20.90;;;;;;6250589;28;20225;-59
2021/04/04 08:28:46;;;;;;;2.70;1.50;;;20.00;22.00;;;;;;6250286;28;20220;-59
2021/04/04 08:31:55;;;;;;;1.53;1.13;;;18.20;23.20;;;;;;6250512;28;20236;-59
2021/04/04 08:34:59;;;;;;;1.83;1.40;;;17.30;24.60;;;;;;6229081;28;20472;-59
2021/04/04 08:38:08;;;;;;;1.93;1.80;;;17.20;24.80;;;;;;6223447;28;20472;-59
2021/04/04 08:41:14;;;;;;;1.77;1.67;;;16.60;25.10;;;;;;6218873;28;20484;-59
2021/04/04 08:44:21;;;;;;;1.33;1.23;;;15.70;26.10;;;;;;6223349;28;20485;-59
2021/04/04 08:47:29;;;;;;;1.63;1.33;;;15.10;26.90;;;;;;6223694;28;20486;-60
2021/04/04 08:50:34;;;;;;;1.00;0.90;;;14.90;27.20;;;;;;6223292;28;20810;-60
2021/04/04 08:53:41;;;;;;;1.70;1.13;;;16.50;27.00;;;;;;6224886;28;20985;-60
2021/04/04 08:56:46;;;;;;;1.23;1.13;;;17.60;24.90;;;;;;6225478;28;20472;-60
2021/04/04 08:59:54;;;;;;;2.23;1.50;;;21.40;23.80;;;;;;6225367;28;20480;-60
2021/04/04 09:02:59;;;;;;;1.63;1.13;;;25.50;21.20;;;;;;6225631;28;20240;-60
2021/04/04 09:06:05;;;;;;;1.70;1.10;;;29.30;18.70;;;;;;6225156;28;20717;-60
2021/04/04 09:09:20;;;;;;;1.73;1.20;;;32.10;16.10;;;;;;6225155;28;20229;-61
2021/04/04 09:12:22;;;;;;;4.10;1.17;;;32.70;14.70;;;;;;6240896;28;20235;-62
2021/04/04 09:15:26;;;;;;;1.23;1.10;;;30.10;16.20;;;;;;6249310;28;20220;-61
2021/04/04 09:18:30;;;;;;;1.87;1.13;;;27.30;17.80;;;;;;6246557;28;20225;-61
2021/04/04 09:21:38;;;;;;;1.43;1.07;;;24.20;18.50;;;;;;6237476;28;20198;-60
2021/04/04 09:24:46;;;;;;;2.00;1.80;;;21.70;20.40;;;;;;6235708;28;20265;-62
2021/04/04 09:27:49;;;;;;;5.70;2.10;;;20.20;21.70;;;;;;6225357;28;20225;-59
2021/04/04 09:30:51;;;;;;;1.53;1.10;;;18.90;22.60;;;;;;6228966;28;20660;-58
2021/04/04 09:34:02;;;;;;;1.70;1.10;;;18.00;23.30;;;;;;6238364;28;20231;-57
2021/04/04 09:37:05;;;;;;;0.97;0.87;;;20.30;23.60;;;;;;6254299;28;20238;-58
2021/04/04 09:40:08;;;;;;;3.17;1.17;;;22.20;21.20;;;;;;6254221;28;20224;-59
2021/04/04 09:43:12;;;;;;;2.13;1.00;;;24.00;21.60;;;;;;6245388;28;20251;-59
2021/04/04 09:46:14;;;;;;;1.50;1.20;;;28.30;18.50;;;;;;6253776;28;20228;-59
2021/04/04 09:52:44;;;;;;;1.97;1.40;;;28.00;17.30;;;;;;6335794;27;20539;-59
2021/04/04 09:55:46;;;;;;;2.20;1.47;;;23.70;18.80;;;;;;6310239;28;20314;-62
2021/04/04 09:58:49;;;;;;;1.30;1.20;;;22.10;19.60;;;;;;6295911;28;20237;-59
2021/04/04 10:01:52;;;;;;;1.27;1.10;;;20.70;20.70;;;;;;6295919;28;20234;-59
2021/04/04 10:04:54;;;;;;;5.00;1.40;;;19.80;21.60;;;;;;6296028;28;20311;-59
2021/04/04 10:08:12;;;;;;;1.10;1.00;;;19.10;22.70;;;;;;6295506;28;20227;-59
2021/04/04 10:11:15;;;;;;;1.53;1.43;;;18.30;22.20;;;;;;6294926;28;20227;-60
2021/04/04 10:14:18;;;;;;;2.73;1.10;;;17.80;22.90;;;;;;6294683;28;20484;-57
2021/04/04 10:17:20;;;;;;;1.33;1.10;;;17.60;23.50;;;;;;6292104;28;21012;-61
2021/04/04 10:20:36;;;;;;;2.00;1.10;;;17.30;23.70;;;;;;6295642;28;20472;-63
2021/04/04 10:23:39;;;;;;;1.30;1.13;;;17.70;23.80;;;;;;6295335;28;20470;-59
2021/04/04 10:26:45;;;;;;;1.60;1.40;;;17.90;23.70;;;;;;6295517;28;20466;-59
2021/04/04 10:29:48;;;;;;;1.63;1.47;;;18.00;23.50;;;;;;6295081;28;20469;-58
2021/04/04 10:32:52;;;;;;;1.13;0.97;;;17.80;23.20;;;;;;6295232;28;20586;-59
2021/04/04 10:35:54;;;;;;;1.80;1.03;;;17.70;23.40;;;;;;6295072;28;20476;-59
2021/04/04 10:38:57;;;;;;;1.63;1.53;;;17.80;24.00;;;;;;6295058;28;20473;-59
2021/04/04 10:42:12;;;;;;;1.80;1.70;;;18.00;23.20;;;;;;6295082;28;20465;-59
2021/04/04 10:45:17;;;;;;;1.63;1.53;;;17.90;22.80;;;;;;6294634;28;20484;-59
2021/04/04 10:48:20;;;;;;;1.90;1.10;;;17.80;23.10;;;;;;6289424;28;20478;-59
2021/04/04 10:51:23;;;;;;;1.50;1.40;;;17.60;24.00;;;;;;6293994;28;20496;-59
2021/04/04 10:54:26;;;;;;;1.50;1.20;;;17.50;23.50;;;;;;6294512;28;20473;-58
2021/04/04 10:57:30;;;;;;;1.20;1.10;;;17.50;23.40;;;;;;6294172;28;20461;-59
2021/04/04 11:00:33;;;;;;;2.50;1.60;;;17.00;22.90;;;;;;6294505;28;20467;-58
2021/04/04 11:03:35;;;;;;;2.37;1.90;;;16.70;23.20;;;;;;6280255;28;20536;-59
2021/04/04 11:06:38;;;;;;;1.20;1.10;;;16.20;23.50;;;;;;6277919;28;20464;-58
2021/04/04 11:09:41;;;;;;;2.57;1.37;;;15.70;23.70;;;;;;6278111;28;20442;-59
2021/04/04 11:12:44;;;;;;;1.50;1.40;;;15.50;25.50;;;;;;6277381;28;20482;-59
2021/04/04 11:15:51;;;;;;;2.43;1.43;;;15.60;25.70;;;;;;6277947;28;20447;-59
2021/04/04 11:18:57;;;;;;;2.60;1.60;;;15.90;25.50;;;;;;6277520;28;21030;-58
2021/04/04 11:22:02;;;;;;;1.00;0.90;;;15.90;25.60;;;;;;6276280;28;20983;-59
2021/04/04 11:25:20;;;;;;;1.30;1.20;;;15.80;25.50;;;;;;6276725;28;20474;-59
2021/04/04 11:28:24;;;;;;;1.50;1.30;;;16.00;25.40;;;;;;6274761;28;20462;-59
2021/04/04 11:31:26;;;;;;;3.77;1.60;;;16.00;25.90;;;;;;6277634;28;20493;-58
2021/04/04 11:34:33;;;;;;;1.93;1.20;;;15.80;25.20;;;;;;6277347;28;20494;-59
2021/04/04 11:37:38;;;;;;;3.63;1.37;;;15.70;25.00;;;;;;6276946;28;20486;-58
2021/04/04 11:40:41;;;;;;;2.47;1.53;;;15.70;25.30;;;;;;6276638;28;20851;-58
2021/04/04 11:43:44;;;;;;;2.17;1.73;;;16.10;25.30;;;;;;6273609;28;20475;-57
2021/04/04 11:46:50;;;;;;;4.53;1.60;;;16.40;25.30;;;;;;6272771;28;20466;-57
2021/04/04 11:49:53;;;;;;;1.40;1.20;;;16.40;26.00;;;;;;6274994;28;20466;-57
2021/04/04 11:52:56;;;;;;;1.43;1.33;;;16.30;26.00;;;;;;6264896;28;21001;-56
2021/04/04 11:55:59;;;;;;;1.47;1.30;;;16.20;25.40;;;;;;6274613;28;20866;-56
2021/04/04 11:59:02;;;;;;;1.80;1.47;;;16.10;25.40;;;;;;6275080;28;20470;-57
2021/04/04 12:02:04;;;;;;;1.23;1.07;;;16.20;25.40;;;;;;6275154;28;20814;-57
2021/04/04 12:05:09;;;;;;;1.40;1.10;;;16.30;24.50;;;;;;6271988;28;20473;-56
2021/04/04 12:08:12;;;;;;;1.83;1.37;;;16.70;24.70;;;;;;6274158;28;20466;-59
2021/04/04 12:11:15;;;;;;;1.83;1.37;;;17.40;24.40;;;;;;6273964;28;20474;-58
2021/04/04 12:14:17;;;;;;;2.33;1.20;;;17.60;24.10;;;;;;6273682;28;20470;-58
2021/04/04 12:17:20;;;;;;;1.40;1.20;;;17.60;23.20;;;;;;6275898;28;20968;-59
2021/04/04 12:20:25;;;;;;;1.60;1.37;;;17.80;22.30;;;;;;6275987;28;20561;-61
2021/04/04 12:23:30;;;;;;;2.37;1.70;;;17.90;22.80;;;;;;6276155;28;20482;-61
2021/04/04 12:26:33;;;;;;;1.43;1.33;;;18.20;25.20;;;;;;6276361;28;20478;-60
2021/04/04 12:29:42;;;;;;;1.47;1.37;;;18.60;22.30;;;;;;6276329;28;20466;-62
2021/04/04 12:32:45;;;;;;;1.60;1.23;;;18.60;22.10;;;;;;6275795;28;20554;-58
2021/04/04 12:35:48;;;;;;;2.80;1.60;;;18.70;22.40;;;;;;6275577;28;20988;-58
2021/04/04 12:38:52;;;;;;;2.07;1.17;;;18.80;22.30;;;;;;6272485;28;20639;-59
2021/04/04 12:41:55;;;;;;;1.30;1.20;;;18.30;23.20;;;;;;6271619;28;20477;-59
2021/04/04 12:44:58;;;;;;;1.30;1.13;;;17.50;23.50;;;;;;6272065;28;20478;-59
2021/04/04 12:48:01;;;;;;;1.90;1.30;;;16.90;23.80;;;;;;6272126;28;20478;-59
2021/04/04 12:51:04;;;;;;;1.40;1.10;;;16.40;24.40;;;;;;6271418;28;20490;-59
2021/04/04 12:54:06;;;;;;;1.97;1.40;;;16.40;24.40;;;;;;6274700;28;20842;-59
2021/04/04 12:57:09;;;;;;;2.07;1.40;;;16.40;24.20;;;;;;6271218;28;20474;-59
2021/04/04 13:00:22;;;;;;;2.03;1.00;;;16.40;23.60;;;;;;6275231;28;20470;-59
2021/04/04 13:03:32;;;;;;;1.27;1.17;;;16.50;23.50;;;;;;6275179;28;20974;-59
2021/04/04 13:06:34;;;;;;;1.87;1.40;;;16.20;23.90;;;;;;6275383;28;20415;-59
2021/04/04 13:09:37;;;;;;;1.30;1.20;;;16.00;24.10;;;;;;6275407;28;20917;-59
2021/04/04 13:12:40;;;;;;;7.63;1.30;;;15.60;24.20;;;;;;6274736;28;20489;-59
2021/04/04 13:15:43;;;;;;;1.37;1.27;;;15.60;24.40;;;;;;6274870;28;20947;-59
2021/04/04 13:18:46;;;;;;;1.47;1.20;;;15.80;24.50;;;;;;6274900;28;20902;-59
2021/04/04 13:21:51;;;;;;;1.67;1.57;;;16.00;24.10;;;;;;6274615;28;20793;-59
2021/04/04 13:24:56;;;;;;;1.50;1.40;;;15.70;24.30;;;;;;6274653;28;20463;-59
2021/04/04 13:27:59;;;;;;;1.20;1.10;;;15.40;24.60;;;;;;6275216;28;20483;-59
2021/04/04 13:31:17;;;;;;;1.40;1.30;;;15.30;25.10;;;;;;6274941;28;20467;-59
2021/04/04 13:34:21;;;;;;;1.80;1.50;;;15.30;26.00;;;;;;6274669;28;20489;-59
2021/04/04 13:37:23;;;;;;;2.70;1.40;;;15.20;25.50;;;;;;6274914;28;20539;-59
2021/04/04 13:40:27;;;;;;;2.50;1.40;;;15.00;26.30;;;;;;6275086;28;20465;-59
2021/04/04 13:43:30;;;;;;;1.40;1.30;;;14.80;25.90;;;;;;6274299;28;20819;-58
2021/04/04 13:46:34;;;;;;;1.73;1.10;;;14.70;25.80;;;;;;6274517;28;20826;-60
2021/04/04 13:49:38;;;;;;;1.60;1.50;;;14.80;26.10;;;;;;6274457;28;21104;-59
2021/04/04 13:52:40;;;;;;;1.87;1.53;;;15.20;26.00;;;;;;6274395;28;20502;-60
2021/04/04 13:55:43;;;;;;;1.83;1.20;;;15.10;25.40;;;;;;6274201;28;21065;-59
2021/04/04 13:58:47;;;;;;;1.47;1.30;;;14.70;25.10;;;;;;6273628;28;20492;-59
2021/04/04 14:01:52;;;;;;;1.60;1.50;;;14.60;25.10;;;;;;6274339;28;20470;-59
2021/04/04 14:04:54;;;;;;;2.70;1.30;;;14.50;25.10;;;;;;6274051;28;20962;-59
2021/04/04 14:08:04;;;;;;;1.67;1.27;;;14.60;25.40;;;;;;6274450;28;20470;-59
2021/04/04 14:11:09;;;;;;;1.90;1.53;;;14.60;25.10;;;;;;6274182;28;20486;-59
2021/04/04 14:14:12;;;;;;;1.43;1.33;;;14.70;25.10;;;;;;6273842;28;20474;-59
2021/04/04 14:17:15;;;;;;;1.53;1.40;;;14.70;25.60;;;;;;6274445;28;20498;-59
2021/04/04 14:20:18;;;;;;;2.03;1.37;;;14.40;25.40;;;;;;6274088;28;20462;-59
2021/04/04 14:23:20;;;;;;;1.43;1.33;;;14.20;25.50;;;;;;6274246;28;20484;-59
2021/04/04 14:26:23;;;;;;;15.43;13.73;;;13.90;26.20;;;;;;6273987;28;20993;-59
2021/04/04 14:29:26;;;;;;;1.90;1.70;;;13.90;27.10;;;;;;6273505;28;20486;-62
2021/04/04 14:32:29;;;;;;;1.80;1.53;;;13.70;26.70;;;;;;6273789;28;20467;-62
2021/04/04 14:35:32;;;;;;;1.73;1.33;;;13.70;26.80;;;;;;6272875;28;20485;-62
2021/04/04 14:38:35;;;;;;;1.97;1.30;;;13.60;27.00;;;;;;6277582;28;20474;-62
2021/04/04 14:41:38;;;;;;;1.60;1.43;;;13.50;27.10;;;;;;6278681;28;20477;-61
2021/04/04 14:44:42;;;;;;;2.10;1.03;;;13.40;27.30;;;;;;6278440;28;20470;-62
2021/04/04 14:47:44;;;;;;;1.53;1.43;;;13.40;26.50;;;;;;6278551;28;20481;-61
2021/04/04 14:50:47;;;;;;;1.83;1.73;;;13.40;26.90;;;;;;6278052;28;20489;-62
2021/04/04 14:53:49;;;;;;;2.07;1.50;;;13.40;27.20;;;;;;6278245;28;20507;-62
2021/04/04 14:56:52;;;;;;;3.00;1.43;;;13.30;26.90;;;;;;6278346;28;20484;-62
2021/04/04 14:59:56;;;;;;;1.40;1.30;;;13.20;26.80;;;;;;6278112;28;20508;-62
2021/04/04 15:02:58;;;;;;;1.47;1.37;;;13.10;27.70;;;;;;6278119;28;20478;-62
2021/04/04 15:06:01;;;;;;;1.50;1.40;;;13.10;26.90;;;;;;6269145;28;20550;-62
2021/04/04 15:09:05;;;;;;;1.50;1.40;;;13.20;26.40;;;;;;6278203;28;20820;-62
2021/04/04 15:12:08;;;;;;;1.53;1.40;;;13.10;26.40;;;;;;6277860;28;20482;-62
2021/04/04 15:15:13;;;;;;;3.83;1.30;;;13.10;26.80;;;;;;6278009;28;20478;-62
2021/04/04 15:18:16;;;;;;;1.77;1.07;;;13.10;26.70;;;;;;6279276;28;20488;-61
2021/04/04 15:21:20;;;;;;;2.40;1.50;;;13.10;26.70;;;;;;6278599;28;20462;-61
2021/04/04 15:24:23;;;;;;;1.57;1.47;;;13.10;26.80;;;;;;6278042;28;20831;-62
2021/04/04 15:27:25;;;;;;;2.33;1.50;;;13.10;26.80;;;;;;6279331;28;20474;-62
2021/04/04 15:30:33;;;;;;;2.10;1.60;;;13.00;27.00;;;;;;6277810;28;20472;-62
2021/04/04 15:33:40;;;;;;;4.07;1.30;;;13.00;27.80;;;;;;6277650;28;20897;-62
2021/04/04 15:36:43;;;;;;;2.10;1.30;;;13.10;28.50;;;;;;6277646;28;20469;-62
2021/04/04 15:39:45;;;;;;;1.73;1.57;;;13.20;28.50;;;;;;6276842;28;20477;-62
2021/04/04 15:42:47;;;;;;;1.67;1.57;;;13.10;29.50;;;;;;6276545;28;20926;-62
2021/04/04 15:45:51;;;;;;;1.40;1.30;;;13.00;27.90;;;;;;6276322;28;20909;-62
2021/04/04 15:48:53;;;;;;;2.00;1.80;;;12.90;27.90;;;;;;6276761;28;20449;-63
2021/04/04 15:51:56;;;;;;;1.30;1.20;;;12.80;28.20;;;;;;6276165;28;20779;-62
2021/04/04 15:54:58;;;;;;;3.23;2.17;;;12.80;28.20;;;;;;6276622;28;20474;-63
2021/04/04 15:58:00;;;;;;;1.30;1.20;;;12.90;33.70;;;;;;6277077;28;20470;-63
2021/04/04 16:01:04;;;;;;;1.67;1.57;;;13.10;32.00;;;;;;6276620;28;20482;-62
2021/04/04 16:04:06;;;;;;;1.80;1.07;;;13.20;28.70;;;;;;6277589;28;20486;-62
2021/04/04 16:07:08;;;;;;;1.47;1.37;;;13.20;28.40;;;;;;6268900;28;20474;-62
2021/04/04 16:10:19;;;;;;;4.97;2.10;;;13.20;28.20;;;;;;6277235;28;20537;-61
2021/04/04 16:13:21;;;;;;;1.77;1.50;;;13.10;28.10;;;;;;6277749;28;20471;-62
2021/04/04 16:16:24;;;;;;;1.50;1.40;;;13.10;28.30;;;;;;6277510;28;20491;-62